Time;durP1;ratioP1;P1;durP2;ratioP2;P2;SDS_P1;SDS_P2;PMS_P1;PMS_P2;Temp;Humidity;BMP_temperature;BMP_pressure;BME280_temperature;BME280_humidity;BME280_pressure;Samples;Min_cycle;Max_cycle;Signal;HPM_P1;HPM_P2
2021/01/22 00:00:22;;;;;;;0.87;0.80;;;;;;;;;;5031222;28;20174;-58
2021/01/22 00:02:48;;;;;;;1.20;1.00;;;;;;;;;;5031507;28;20615;-58
2021/01/22 00:05:14;;;;;;;2.50;1.00;;;;;;;;;;5012302;28;20223;-58
2021/01/22 00:07:40;;;;;;;2.20;0.90;;;;;;;;;;5030166;28;20186;-58
2021/01/22 00:10:06;;;;;;;2.63;0.90;;;;;;;;;;5030117;28;20275;-57
2021/01/22 00:12:32;;;;;;;2.53;1.30;;;;;;;;;;5011929;28;20189;-61
2021/01/22 00:14:58;;;;;;;1.40;0.73;;;;;;;;;;5030620;28;20174;-58
2021/01/22 00:17:24;;;;;;;1.40;1.27;;;;;;;;;;5030610;28;20178;-59
2021/01/22 00:19:50;;;;;;;2.67;0.80;;;;;;;;;;5011610;28;20213;-57
2021/01/22 00:22:16;;;;;;;1.83;0.90;;;;;;;;;;5030389;28;20178;-57
2021/01/22 00:24:42;;;;;;;1.57;1.10;;;;;;;;;;5028516;28;20212;-60
2021/01/22 00:27:08;;;;;;;2.60;0.80;;;;;;;;;;5030020;28;20201;-59
2021/01/22 00:29:34;;;;;;;2.10;1.03;;;;;;;;;;5030246;28;20237;-57
2021/01/22 00:32:00;;;;;;;4.07;1.13;;;;;;;;;;5029896;28;20181;-58
2021/01/22 00:34:26;;;;;;;2.13;0.80;;;;;;;;;;5029971;28;20185;-57
2021/01/22 00:36:52;;;;;;;3.30;1.20;;;;;;;;;;5012123;28;20547;-58
2021/01/22 00:39:18;;;;;;;1.40;0.97;;;;;;;;;;5029446;28;20213;-57
2021/01/22 00:41:44;;;;;;;1.70;0.90;;;;;;;;;;5029596;28;20281;-57
2021/01/22 00:44:10;;;;;;;2.47;0.93;;;;;;;;;;5011639;28;20221;-58
2021/01/22 00:46:37;;;;;;;0.50;0.50;;;;;;;;;;5029805;28;20209;-58
2021/01/22 00:49:03;;;;;;;1.70;1.27;;;;;;;;;;5029289;28;20220;-59
2021/01/22 00:51:29;;;;;;;1.50;0.80;;;;;;;;;;5030181;28;20213;-57
2021/01/22 00:53:55;;;;;;;1.67;0.90;;;;;;;;;;5029051;28;20188;-58
2021/01/22 00:56:21;;;;;;;3.10;1.07;;;;;;;;;;5012044;28;20276;-58
2021/01/22 00:58:47;;;;;;;1.70;0.80;;;;;;;;;;5028762;28;20277;-58
2021/01/22 01:01:13;;;;;;;1.93;1.03;;;;;;;;;;5029358;28;20182;-58
2021/01/22 01:03:39;;;;;;;1.77;0.83;;;;;;;;;;5029145;28;20177;-57
2021/01/22 01:06:05;;;;;;;1.33;0.80;;;;;;;;;;5029843;28;20583;-57
2021/01/22 01:08:31;;;;;;;1.13;0.83;;;;;;;;;;5009811;28;20309;-57
2021/01/22 01:10:57;;;;;;;0.73;0.73;;;;;;;;;;5011788;28;20304;-58
2021/01/22 01:13:23;;;;;;;2.70;1.03;;;;;;;;;;5028971;28;20189;-59
2021/01/22 01:15:49;;;;;;;2.07;0.97;;;;;;;;;;5028793;28;20182;-58
2021/01/22 01:18:15;;;;;;;2.77;0.87;;;;;;;;;;5011464;28;20176;-58
2021/01/22 01:20:41;;;;;;;1.47;1.00;;;;;;;;;;5011218;28;20244;-58
2021/01/22 01:23:14;;;;;;;2.40;0.93;;;;;;;;;;5029434;28;20220;-58
2021/01/22 01:25:40;;;;;;;3.57;1.77;;;;;;;;;;5029861;28;20200;-58
2021/01/22 01:28:06;;;;;;;3.57;1.30;;;;;;;;;;5028731;28;20186;-58
2021/01/22 01:30:34;;;;;;;1.50;0.80;;;;;;;;;;5028945;28;20484;-59
2021/01/22 01:33:00;;;;;;;2.63;1.23;;;;;;;;;;5027931;28;20181;-58
2021/01/22 01:35:26;;;;;;;3.13;1.20;;;;;;;;;;5012334;28;20190;-58
2021/01/22 01:37:52;;;;;;;2.53;1.10;;;;;;;;;;4998145;28;20933;-59
2021/01/22 01:40:18;;;;;;;1.60;0.83;;;;;;;;;;5029593;28;20276;-58
2021/01/22 01:42:44;;;;;;;1.20;0.90;;;;;;;;;;5010988;28;20173;-58
2021/01/22 01:45:10;;;;;;;2.53;1.33;;;;;;;;;;5012332;28;20174;-59
2021/01/22 01:47:36;;;;;;;2.47;1.00;;;;;;;;;;5010752;28;20182;-58
2021/01/22 01:50:03;;;;;;;4.97;0.87;;;;;;;;;;5029244;28;20209;-59
2021/01/22 01:52:29;;;;;;;3.80;1.27;;;;;;;;;;5029530;28;20625;-61
2021/01/22 01:54:55;;;;;;;1.27;0.77;;;;;;;;;;5028944;28;20206;-59
2021/01/22 01:57:21;;;;;;;1.20;0.80;;;;;;;;;;5029061;28;20623;-58
2021/01/22 01:59:47;;;;;;;1.67;0.70;;;;;;;;;;5029006;28;20181;-58
2021/01/22 02:02:13;;;;;;;1.83;0.60;;;;;;;;;;5029083;28;20687;-59
2021/01/22 02:04:39;;;;;;;4.40;1.00;;;;;;;;;;5009603;28;20201;-59
2021/01/22 02:07:05;;;;;;;0.53;0.50;;;;;;;;;;5028578;28;20186;-58
2021/01/22 02:09:31;;;;;;;1.40;0.83;;;;;;;;;;5009985;28;20292;-59
2021/01/22 02:11:58;;;;;;;1.10;0.90;;;;;;;;;;5028280;28;20174;-58
2021/01/22 02:14:25;;;;;;;1.13;1.03;;;;;;;;;;5029347;28;20174;-59
2021/01/22 02:16:51;;;;;;;0.90;0.90;;;;;;;;;;5029370;28;20651;-58
2021/01/22 02:19:19;;;;;;;1.10;1.00;;;;;;;;;;5011385;28;20202;-58
2021/01/22 02:21:45;;;;;;;1.07;1.03;;;;;;;;;;5032906;28;20185;-58
2021/01/22 02:24:21;;;;;;;1.13;1.03;;;;;;;;;;5032287;28;20722;-58
2021/01/22 02:26:53;;;;;;;1.97;1.30;;;;;;;;;;5032806;28;20679;-58
2021/01/22 02:29:20;;;;;;;1.40;1.30;;;;;;;;;;5032737;28;20209;-58
2021/01/22 02:31:47;;;;;;;1.10;1.00;;;;;;;;;;5014644;28;20482;-58
2021/01/22 02:34:17;;;;;;;1.17;1.07;;;;;;;;;;5032576;28;20177;-59
2021/01/22 02:36:45;;;;;;;0.87;0.87;;;;;;;;;;5031888;28;20185;-58
2021/01/22 02:39:13;;;;;;;0.87;0.87;;;;;;;;;;5032316;28;20186;-58
2021/01/22 02:41:40;;;;;;;0.80;0.80;;;;;;;;;;5031681;28;20182;-61
2021/01/22 02:44:07;;;;;;;0.83;0.83;;;;;;;;;;5013684;28;20607;-58
2021/01/22 02:46:34;;;;;;;0.83;0.83;;;;;;;;;;5014061;28;20186;-58
2021/01/22 02:49:00;;;;;;;0.80;0.80;;;;;;;;;;5031105;28;20220;-58
2021/01/22 02:51:26;;;;;;;0.67;0.67;;;;;;;;;;5014216;28;20532;-58
2021/01/22 02:53:52;;;;;;;0.77;0.77;;;;;;;;;;5027045;28;20185;-58
2021/01/22 02:56:23;;;;;;;0.73;0.73;;;;;;;;;;5031260;28;20189;-58
2021/01/22 02:59:07;;;;;;;0.80;0.80;;;;;;;;;;5031151;28;20613;-57
2021/01/22 03:01:35;;;;;;;0.80;0.80;;;;;;;;;;5028034;28;20191;-57
2021/01/22 03:04:01;;;;;;;3.10;0.93;;;;;;;;;;5030568;28;20202;-58
2021/01/22 03:06:28;;;;;;;0.87;0.87;;;;;;;;;;5031201;28;20224;-58
2021/01/22 03:08:55;;;;;;;0.73;0.73;;;;;;;;;;5031603;28;20221;-60
2021/01/22 03:11:23;;;;;;;1.23;0.90;;;;;;;;;;5031009;28;20684;-58
2021/01/22 03:13:51;;;;;;;0.73;0.73;;;;;;;;;;5020560;28;20197;-58
2021/01/22 03:16:17;;;;;;;1.37;0.90;;;;;;;;;;5031970;28;20181;-58
2021/01/22 03:19:03;;;;;;;0.87;0.87;;;;;;;;;;5031619;28;20192;-58
2021/01/22 03:21:29;;;;;;;0.80;0.80;;;;;;;;;;5014087;28;20169;-58
2021/01/22 03:23:55;;;;;;;0.93;0.93;;;;;;;;;;5031280;28;20198;-58
2021/01/22 03:26:21;;;;;;;2.00;0.90;;;;;;;;;;5031649;28;20181;-58
2021/01/22 03:28:47;;;;;;;1.00;1.00;;;;;;;;;;5031085;28;20185;-57
2021/01/22 03:31:13;;;;;;;1.10;1.10;;;;;;;;;;5030914;28;20251;-58
2021/01/22 03:33:39;;;;;;;0.90;0.90;;;;;;;;;;5013160;28;20178;-60
2021/01/22 03:36:06;;;;;;;0.87;0.87;;;;;;;;;;5031638;28;20185;-57
2021/01/22 03:38:32;;;;;;;1.13;1.07;;;;;;;;;;5031136;28;20178;-58
2021/01/22 03:40:58;;;;;;;1.33;1.23;;;;;;;;;;5031169;28;20182;-57
2021/01/22 03:43:24;;;;;;;1.30;1.20;;;;;;;;;;5012382;28;20182;-58
2021/01/22 03:45:50;;;;;;;1.23;1.13;;;;;;;;;;5031349;28;20209;-58
2021/01/22 03:48:16;;;;;;;1.83;1.40;;;;;;;;;;5031112;28;20842;-57
2021/01/22 03:50:42;;;;;;;2.07;1.80;;;;;;;;;;5031203;28;20556;-57
2021/01/22 03:53:09;;;;;;;1.80;1.70;;;;;;;;;;5030954;28;20178;-57
2021/01/22 03:55:36;;;;;;;2.73;2.53;;;;;;;;;;5031364;28;20289;-57
2021/01/22 03:58:02;;;;;;;3.00;2.70;;;;;;;;;;5030759;28;20218;-57
2021/01/22 04:00:28;;;;;;;2.77;2.40;;;;;;;;;;5031592;28;20397;-57
2021/01/22 04:02:54;;;;;;;2.50;2.20;;;;;;;;;;5030406;28;21060;-57
2021/01/22 04:05:20;;;;;;;2.40;2.20;;;;;;;;;;5030789;28;20319;-58
2021/01/22 04:07:46;;;;;;;2.43;2.20;;;;;;;;;;5030245;28;20193;-58
2021/01/22 04:10:12;;;;;;;2.50;2.30;;;;;;;;;;5030745;28;20674;-58
2021/01/22 04:12:38;;;;;;;2.47;2.27;;;;;;;;;;5011893;28;20178;-57
2021/01/22 04:15:04;;;;;;;3.90;2.57;;;;;;;;;;5013610;28;20544;-58
2021/01/22 04:17:30;;;;;;;3.97;2.23;;;;;;;;;;5029990;28;20177;-57
2021/01/22 04:19:56;;;;;;;2.83;2.33;;;;;;;;;;5030283;28;20186;-58
2021/01/22 04:22:22;;;;;;;2.60;2.40;;;;;;;;;;5012433;28;20197;-57
2021/01/22 04:24:48;;;;;;;2.90;2.60;;;;;;;;;;5028502;28;20178;-57
2021/01/22 04:27:14;;;;;;;2.90;2.67;;;;;;;;;;5028824;28;20648;-58
2021/01/22 04:29:40;;;;;;;3.67;2.40;;;;;;;;;;5029636;28;20209;-58
2021/01/22 04:32:07;;;;;;;3.37;2.80;;;;;;;;;;5030200;28;20189;-58
2021/01/22 04:34:33;;;;;;;3.10;2.90;;;;;;;;;;5010821;28;20731;-57
2021/01/22 04:36:59;;;;;;;2.67;2.47;;;;;;;;;;5030630;28;20201;-57
2021/01/22 04:39:25;;;;;;;3.40;3.10;;;;;;;;;;5029649;28;20265;-57
2021/01/22 04:41:52;;;;;;;3.10;2.80;;;;;;;;;;5029506;28;20192;-59
2021/01/22 04:44:18;;;;;;;3.23;3.00;;;;;;;;;;5011353;28;20646;-59
2021/01/22 04:46:44;;;;;;;3.50;3.20;;;;;;;;;;5002638;28;20181;-58
2021/01/22 04:49:10;;;;;;;3.30;3.00;;;;;;;;;;5029843;28;20210;-58
2021/01/22 04:51:37;;;;;;;3.53;3.23;;;;;;;;;;5012438;28;20636;-58
2021/01/22 04:54:05;;;;;;;3.53;3.23;;;;;;;;;;5028428;28;20647;-57
2021/01/22 04:56:36;;;;;;;3.10;2.90;;;;;;;;;;5029674;28;20293;-58
2021/01/22 04:59:04;;;;;;;3.67;3.37;;;;;;;;;;5011705;28;20215;-57
2021/01/22 05:01:30;;;;;;;3.80;3.50;;;;;;;;;;5030285;28;20561;-57
2021/01/22 05:03:59;;;;;;;3.97;3.57;;;;;;;;;;5029371;28;20261;-57
2021/01/22 05:06:25;;;;;;;3.90;3.60;;;;;;;;;;5011965;28;20209;-60
2021/01/22 05:08:54;;;;;;;3.97;3.67;;;;;;;;;;5027849;28;20252;-57
2021/01/22 05:11:21;;;;;;;3.63;3.33;;;;;;;;;;5026292;28;20225;-57
2021/01/22 05:13:47;;;;;;;3.53;3.23;;;;;;;;;;5028992;28;20186;-58
2021/01/22 05:16:16;;;;;;;3.40;3.10;;;;;;;;;;5029981;28;20185;-57
2021/01/22 05:18:43;;;;;;;3.80;3.10;;;;;;;;;;5010678;28;20268;-57
2021/01/22 05:21:10;;;;;;;3.67;3.33;;;;;;;;;;5021949;28;20174;-57
2021/01/22 05:23:40;;;;;;;3.40;3.10;;;;;;;;;;5029050;28;20639;-57
2021/01/22 05:26:07;;;;;;;3.50;3.20;;;;;;;;;;5030027;28;20178;-58
2021/01/22 05:28:36;;;;;;;3.97;3.57;;;;;;;;;;5028673;28;20208;-57
2021/01/22 05:31:02;;;;;;;3.60;3.30;;;;;;;;;;5029129;28;20618;-57
2021/01/22 05:33:29;;;;;;;3.63;3.33;;;;;;;;;;5010186;28;20186;-57
2021/01/22 05:35:55;;;;;;;4.30;3.90;;;;;;;;;;5027999;28;20219;-58
2021/01/22 05:38:41;;;;;;;4.30;3.37;;;;;;;;;;5028585;28;20192;-57
2021/01/22 05:41:08;;;;;;;5.30;3.80;;;;;;;;;;5028889;28;20186;-57
2021/01/22 05:43:35;;;;;;;3.00;2.80;;;;;;;;;;5028289;28;20266;-57
2021/01/22 05:46:01;;;;;;;3.60;3.30;;;;;;;;;;5029357;28;20190;-58
2021/01/22 05:48:28;;;;;;;3.53;3.23;;;;;;;;;;5029380;28;20177;-57
2021/01/22 05:50:55;;;;;;;3.73;3.43;;;;;;;;;;5029229;28;20216;-58
2021/01/22 05:53:21;;;;;;;3.53;3.23;;;;;;;;;;5028995;28;20489;-57
2021/01/22 05:56:06;;;;;;;3.43;3.13;;;;;;;;;;5032104;28;20818;-57
2021/01/22 05:58:32;;;;;;;4.13;3.73;;;;;;;;;;5032245;28;20185;-58
2021/01/22 06:01:18;;;;;;;3.43;3.13;;;;;;;;;;5011936;28;20231;-57
2021/01/22 06:03:45;;;;;;;3.90;3.57;;;;;;;;;;5016108;28;20178;-57
2021/01/22 06:06:12;;;;;;;4.37;3.97;;;;;;;;;;5009228;28;20186;-59
2021/01/22 06:08:48;;;;;;;3.57;3.27;;;;;;;;;;5031055;28;20520;-57
2021/01/22 06:11:15;;;;;;;3.43;3.07;;;;;;;;;;5007436;28;20213;-57
2021/01/22 06:13:44;;;;;;;4.00;3.47;;;;;;;;;;5018222;28;20174;-60
2021/01/22 06:16:11;;;;;;;3.60;3.30;;;;;;;;;;5025774;28;20178;-57
2021/01/22 06:18:38;;;;;;;4.47;3.87;;;;;;;;;;5032406;28;20181;-58
2021/01/22 06:21:14;;;;;;;3.77;3.40;;;;;;;;;;5032186;28;20217;-57
2021/01/22 06:23:40;;;;;;;3.20;2.90;;;;;;;;;;5033374;28;20242;-57
2021/01/22 06:26:06;;;;;;;3.63;3.30;;;;;;;;;;5032947;28;20205;-57
2021/01/22 06:28:33;;;;;;;4.50;3.10;;;;;;;;;;5012618;28;20213;-57
2021/01/22 06:30:59;;;;;;;3.47;3.17;;;;;;;;;;5033172;28;20228;-57
2021/01/22 06:33:25;;;;;;;3.57;3.27;;;;;;;;;;5033160;28;20174;-58
2021/01/22 06:35:52;;;;;;;3.73;3.43;;;;;;;;;;5033099;28;20189;-59
2021/01/22 06:38:22;;;;;;;3.67;3.30;;;;;;;;;;5032932;28;20178;-57
2021/01/22 06:40:48;;;;;;;3.87;3.23;;;;;;;;;;5033134;28;20174;-57
2021/01/22 06:43:14;;;;;;;6.07;3.93;;;;;;;;;;5032858;28;20174;-58
2021/01/22 06:45:40;;;;;;;5.60;3.70;;;;;;;;;;5024826;28;20193;-57
2021/01/22 06:48:07;;;;;;;4.87;4.00;;;;;;;;;;5016602;28;20591;-57
2021/01/22 06:50:34;;;;;;;4.10;3.60;;;;;;;;;;5014394;28;20217;-57
2021/01/22 06:53:10;;;;;;;7.80;4.17;;;;;;;;;;5026704;28;20178;-58
2021/01/22 06:55:52;;;;;;;5.00;3.57;;;;;;;;;;5032684;28;20170;-57
2021/01/22 06:58:27;;;;;;;4.60;3.60;;;;;;;;;;5031966;28;20296;-58
2021/01/22 07:00:54;;;;;;;4.53;3.60;;;;;;;;;;5032102;28;20224;-57
2021/01/22 07:03:46;;;;;;;5.23;3.90;;;;;;;;;;5032653;28;20224;-57
2021/01/22 07:06:31;;;;;;;5.17;4.00;;;;;;;;;;5030564;28;20248;-60
2021/01/22 07:08:58;;;;;;;4.73;3.80;;;;;;;;;;5031540;28;20205;-57
2021/01/22 07:11:24;;;;;;;5.13;3.77;;;;;;;;;;5032060;28;20252;-57
2021/01/22 07:13:50;;;;;;;5.73;3.57;;;;;;;;;;5031843;28;20170;-57
2021/01/22 07:16:16;;;;;;;5.33;3.97;;;;;;;;;;5031820;28;20184;-57
2021/01/22 07:18:43;;;;;;;3.80;3.40;;;;;;;;;;5031763;28;20182;-58
2021/01/22 07:21:19;;;;;;;4.87;3.80;;;;;;;;;;5032016;28;20181;-57
2021/01/22 07:23:46;;;;;;;3.67;3.30;;;;;;;;;;5031265;28;20185;-57
2021/01/22 07:26:12;;;;;;;4.20;3.80;;;;;;;;;;5031948;28;20181;-57
2021/01/22 07:28:50;;;;;;;4.67;4.20;;;;;;;;;;5012853;28;20186;-57
2021/01/22 07:31:42;;;;;;;5.97;3.90;;;;;;;;;;5014122;28;20185;-57
2021/01/22 07:34:28;;;;;;;4.63;4.03;;;;;;;;;;5031404;28;20521;-58
2021/01/22 07:36:54;;;;;;;4.60;3.80;;;;;;;;;;5031914;28;20208;-57
2021/01/22 07:39:20;;;;;;;4.20;3.80;;;;;;;;;;5031532;28;20197;-58
2021/01/22 07:41:46;;;;;;;6.40;4.10;;;;;;;;;;5031823;28;20174;-58
2021/01/22 07:44:24;;;;;;;4.43;3.67;;;;;;;;;;5030876;28;20595;-58
2021/01/22 07:46:50;;;;;;;4.40;4.00;;;;;;;;;;5032087;28;20234;-57
2021/01/22 07:49:16;;;;;;;5.00;4.07;;;;;;;;;;5028968;28;20343;-59
2021/01/22 07:51:42;;;;;;;6.83;3.80;;;;;;;;;;4992523;28;20234;-57
2021/01/22 07:54:09;;;;;;;4.20;3.80;;;;;;;;;;5022372;28;20182;-58
2021/01/22 07:56:42;;;;;;;3.97;3.57;;;;;;;;;;5013621;28;20169;-57
2021/01/22 07:59:08;;;;;;;3.97;3.57;;;;;;;;;;5025731;28;20270;-57
2021/01/22 08:01:36;;;;;;;4.50;4.00;;;;;;;;;;5031461;28;20181;-57
2021/01/22 08:04:06;;;;;;;5.90;4.50;;;;;;;;;;5030547;28;20513;-57
2021/01/22 08:06:48;;;;;;;6.20;4.00;;;;;;;;;;5031197;28;20664;-57
2021/01/22 08:09:14;;;;;;;5.33;3.50;;;;;;;;;;5031135;28;20652;-57
2021/01/22 08:11:41;;;;;;;4.67;3.73;;;;;;;;;;5031312;28;20221;-57
2021/01/22 08:14:07;;;;;;;4.27;3.53;;;;;;;;;;5013338;28;20231;-57
2021/01/22 08:16:38;;;;;;;4.33;3.67;;;;;;;;;;5031408;28;20204;-58
2021/01/22 08:19:05;;;;;;;4.83;3.60;;;;;;;;;;5030149;28;20627;-57
2021/01/22 08:21:31;;;;;;;4.73;3.77;;;;;;;;;;5031260;28;20611;-57
2021/01/22 08:23:58;;;;;;;4.87;3.80;;;;;;;;;;5031018;28;20190;-57
2021/01/22 08:26:26;;;;;;;5.37;3.70;;;;;;;;;;5013333;28;20177;-56
2021/01/22 08:28:54;;;;;;;3.83;3.50;;;;;;;;;;5030301;28;20185;-57
2021/01/22 08:31:20;;;;;;;3.80;3.23;;;;;;;;;;5031409;28;20194;-57
2021/01/22 08:33:46;;;;;;;5.10;3.63;;;;;;;;;;5030481;28;20190;-57
2021/01/22 08:36:12;;;;;;;4.90;3.97;;;;;;;;;;5031009;28;20692;-57
2021/01/22 08:38:38;;;;;;;6.53;3.90;;;;;;;;;;5012991;28;20182;-57
2021/01/22 08:41:07;;;;;;;5.67;3.87;;;;;;;;;;5030780;28;20591;-57
2021/01/22 08:43:49;;;;;;;5.47;4.00;;;;;;;;;;5029509;28;20213;-60
2021/01/22 08:46:16;;;;;;;4.47;3.50;;;;;;;;;;5030932;28;20188;-57
2021/01/22 08:48:42;;;;;;;4.07;3.67;;;;;;;;;;5029429;28;20178;-57
2021/01/22 08:51:08;;;;;;;4.43;3.67;;;;;;;;;;5026275;28;20201;-58
2021/01/22 08:53:35;;;;;;;4.20;3.80;;;;;;;;;;5011448;28;20182;-57
2021/01/22 08:56:10;;;;;;;4.47;4.00;;;;;;;;;;5008857;28;20170;-57
2021/01/22 08:58:56;;;;;;;4.57;3.50;;;;;;;;;;5011303;28;20603;-58
2021/01/22 09:01:22;;;;;;;4.37;2.97;;;;;;;;;;5023928;28;20186;-57
2021/01/22 09:03:48;;;;;;;7.97;4.30;;;;;;;;;;5028100;28;20307;-57
2021/01/22 09:06:14;;;;;;;4.83;3.63;;;;;;;;;;5025988;28;20484;-57
2021/01/22 09:08:57;;;;;;;6.10;3.73;;;;;;;;;;5029755;28;20217;-57
2021/01/22 09:11:38;;;;;;;6.47;4.20;;;;;;;;;;5018350;28;20221;-59
2021/01/22 09:14:04;;;;;;;5.00;3.67;;;;;;;;;;5027821;28;20268;-57
2021/01/22 09:16:30;;;;;;;4.60;3.73;;;;;;;;;;5027298;28;20312;-57
2021/01/22 09:19:01;;;;;;;4.90;3.67;;;;;;;;;;5029637;28;20251;-57
2021/01/22 09:21:27;;;;;;;5.13;4.37;;;;;;;;;;5011808;28;20181;-57
2021/01/22 09:23:53;;;;;;;3.90;3.50;;;;;;;;;;5029650;28;20178;-59
2021/01/22 09:26:19;;;;;;;4.67;3.73;;;;;;;;;;5029962;28;20182;-57
2021/01/22 09:28:46;;;;;;;3.80;3.37;;;;;;;;;;5028574;28;20193;-57
2021/01/22 09:31:12;;;;;;;5.87;4.17;;;;;;;;;;5029520;28;20210;-56
2021/01/22 09:33:38;;;;;;;4.07;3.47;;;;;;;;;;5029313;28;20185;-57
2021/01/22 09:36:04;;;;;;;6.67;4.13;;;;;;;;;;5011428;28;20178;-59
2021/01/22 09:38:30;;;;;;;4.77;3.77;;;;;;;;;;5029249;28;20551;-57
2021/01/22 09:40:56;;;;;;;6.07;4.27;;;;;;;;;;5029275;28;20604;-56
2021/01/22 09:43:22;;;;;;;3.70;3.30;;;;;;;;;;5029491;28;20229;-57
2021/01/22 09:45:48;;;;;;;7.27;4.03;;;;;;;;;;5011507;28;20261;-58
2021/01/22 09:48:16;;;;;;;3.80;3.33;;;;;;;;;;5011237;28;20599;-59
2021/01/22 09:50:42;;;;;;;5.20;3.73;;;;;;;;;;5029024;28;20210;-59
2021/01/22 09:53:09;;;;;;;4.33;3.37;;;;;;;;;;5029462;28;20235;-57
2021/01/22 09:55:35;;;;;;;5.20;3.60;;;;;;;;;;5029733;28;20188;-57
2021/01/22 09:58:01;;;;;;;5.23;3.60;;;;;;;;;;5029316;28;20174;-57
2021/01/22 10:00:27;;;;;;;4.53;3.40;;;;;;;;;;5029680;28;20300;-56
2021/01/22 10:02:53;;;;;;;4.57;3.80;;;;;;;;;;5029450;28;20300;-58
2021/01/22 10:05:19;;;;;;;4.63;4.07;;;;;;;;;;5011402;28;20924;-57
2021/01/22 10:07:45;;;;;;;5.70;3.70;;;;;;;;;;5011174;28;20193;-57
2021/01/22 10:10:11;;;;;;;7.73;4.50;;;;;;;;;;5029241;28;20217;-57
2021/01/22 10:12:37;;;;;;;4.00;3.57;;;;;;;;;;5010795;28;20714;-57
2021/01/22 10:15:04;;;;;;;5.43;4.17;;;;;;;;;;5010962;28;20177;-57
2021/01/22 10:17:30;;;;;;;4.47;3.63;;;;;;;;;;5011601;28;20235;-56
2021/01/22 10:19:57;;;;;;;5.70;4.20;;;;;;;;;;5028786;28;20185;-57
2021/01/22 10:22:23;;;;;;;5.33;4.00;;;;;;;;;;5029285;28;20625;-57
2021/01/22 10:24:49;;;;;;;6.37;3.77;;;;;;;;;;5006889;28;20566;-57
2021/01/22 10:27:15;;;;;;;6.67;4.03;;;;;;;;;;5029015;28;20194;-57
2021/01/22 10:29:41;;;;;;;4.57;4.07;;;;;;;;;;5026755;28;20232;-57
2021/01/22 10:32:07;;;;;;;6.87;4.47;;;;;;;;;;5002624;28;20183;-59
2021/01/22 10:34:33;;;;;;;6.60;4.50;;;;;;;;;;5011328;28;20179;-57
2021/01/22 10:36:59;;;;;;;5.67;4.63;;;;;;;;;;5028605;28;20624;-57
2021/01/22 10:39:25;;;;;;;6.97;4.73;;;;;;;;;;5029012;28;20263;-58
2021/01/22 10:41:51;;;;;;;6.43;4.60;;;;;;;;;;5027721;28;20228;-58
2021/01/22 10:44:17;;;;;;;9.70;4.83;;;;;;;;;;5007107;28;20182;-57
2021/01/22 10:46:44;;;;;;;7.40;4.87;;;;;;;;;;5014395;28;20526;-57
2021/01/22 10:49:10;;;;;;;10.57;5.07;;;;;;;;;;5032128;28;20196;-58
2021/01/22 10:51:36;;;;;;;7.13;4.40;;;;;;;;;;5025478;28;20174;-58
2021/01/22 10:54:03;;;;;;;5.77;4.70;;;;;;;;;;5011264;28;20635;-58
2021/01/22 10:56:29;;;;;;;8.13;5.17;;;;;;;;;;5017110;28;20517;-57
2021/01/22 10:58:55;;;;;;;6.07;4.60;;;;;;;;;;5013976;28;20526;-60
2021/01/22 11:01:21;;;;;;;6.37;4.60;;;;;;;;;;5020767;28;20894;-57
2021/01/22 11:03:47;;;;;;;6.93;4.87;;;;;;;;;;5031231;28;20186;-56
2021/01/22 11:06:13;;;;;;;6.33;4.80;;;;;;;;;;5032128;28;20174;-57
2021/01/22 11:08:39;;;;;;;6.57;4.77;;;;;;;;;;5031560;28;20197;-57
2021/01/22 11:11:05;;;;;;;5.67;5.10;;;;;;;;;;5031485;28;20869;-58
2021/01/22 11:13:31;;;;;;;7.07;4.70;;;;;;;;;;5006950;28;20178;-57
2021/01/22 11:15:57;;;;;;;8.07;5.10;;;;;;;;;;5013972;28;20578;-57
2021/01/22 11:18:23;;;;;;;7.17;4.60;;;;;;;;;;5013699;28;20659;-56
2021/01/22 11:20:50;;;;;;;6.90;5.23;;;;;;;;;;5019203;28;20625;-57
2021/01/22 11:23:16;;;;;;;7.67;5.00;;;;;;;;;;5017349;28;20194;-57
2021/01/22 11:25:42;;;;;;;6.00;4.57;;;;;;;;;;5014123;28;20184;-57
2021/01/22 11:28:08;;;;;;;6.17;4.47;;;;;;;;;;5030737;28;20185;-57
2021/01/22 11:30:34;;;;;;;7.70;5.67;;;;;;;;;;5031636;28;20198;-57
2021/01/22 11:33:01;;;;;;;6.67;4.87;;;;;;;;;;5030808;28;20166;-56
2021/01/22 11:35:27;;;;;;;7.60;5.60;;;;;;;;;;5011635;28;20182;-57
2021/01/22 11:37:53;;;;;;;7.40;5.47;;;;;;;;;;5028906;28;20205;-57
2021/01/22 11:40:19;;;;;;;7.23;5.43;;;;;;;;;;5029199;28;20178;-57
2021/01/22 11:42:47;;;;;;;7.97;5.03;;;;;;;;;;5023516;28;20197;-60
2021/01/22 11:45:13;;;;;;;7.40;5.53;;;;;;;;;;5025816;28;20515;-57
2021/01/22 11:47:39;;;;;;;7.10;5.77;;;;;;;;;;5018772;28;20265;-57
2021/01/22 11:50:06;;;;;;;6.53;5.27;;;;;;;;;;5012954;28;20206;-59
2021/01/22 11:52:32;;;;;;;6.80;5.73;;;;;;;;;;5014982;28;20179;-57
2021/01/22 11:54:58;;;;;;;7.00;5.90;;;;;;;;;;5027793;28;20185;-58
2021/01/22 11:57:24;;;;;;;9.07;6.17;;;;;;;;;;5029734;28;20964;-57
2021/01/22 11:59:50;;;;;;;7.40;6.53;;;;;;;;;;5030515;28;20189;-57
2021/01/22 12:02:16;;;;;;;8.00;6.00;;;;;;;;;;5030667;28;20181;-59
2021/01/22 12:04:42;;;;;;;6.93;5.80;;;;;;;;;;5027882;28;20553;-58
2021/01/22 12:07:08;;;;;;;7.27;5.53;;;;;;;;;;5012862;28;20204;-58
2021/01/22 12:09:34;;;;;;;6.03;5.40;;;;;;;;;;5029644;28;20197;-57
2021/01/22 12:12:00;;;;;;;9.03;5.93;;;;;;;;;;5011127;28;20544;-57
2021/01/22 12:14:26;;;;;;;7.53;5.53;;;;;;;;;;5029107;28;20190;-58
2021/01/22 12:16:52;;;;;;;7.00;5.43;;;;;;;;;;5022280;28;20289;-57
2021/01/22 12:19:19;;;;;;;6.63;5.77;;;;;;;;;;5015722;28;20621;-57
2021/01/22 12:21:45;;;;;;;10.33;5.77;;;;;;;;;;5025369;28;20185;-57
2021/01/22 12:24:11;;;;;;;7.77;6.17;;;;;;;;;;5012054;28;20198;-57
2021/01/22 12:26:38;;;;;;;6.80;5.07;;;;;;;;;;5028357;28;20170;-59
2021/01/22 12:29:04;;;;;;;5.83;5.17;;;;;;;;;;5020564;28;20185;-57
2021/01/22 12:31:30;;;;;;;6.20;5.50;;;;;;;;;;5008354;28;20188;-60
2021/01/22 12:33:56;;;;;;;6.70;4.63;;;;;;;;;;5005492;28;20178;-57
2021/01/22 12:36:22;;;;;;;8.47;5.67;;;;;;;;;;5022610;28;20174;-57
2021/01/22 12:38:48;;;;;;;5.67;5.10;;;;;;;;;;5029341;28;20185;-57
2021/01/22 12:41:14;;;;;;;5.57;4.60;;;;;;;;;;5026751;28;20185;-57
2021/01/22 12:43:40;;;;;;;5.63;5.00;;;;;;;;;;5024597;28;20186;-60
2021/01/22 12:46:07;;;;;;;5.23;4.73;;;;;;;;;;5027144;28;20593;-57
2021/01/22 12:48:33;;;;;;;6.10;4.50;;;;;;;;;;5028057;28;20178;-57
2021/01/22 12:50:59;;;;;;;8.00;4.90;;;;;;;;;;4994836;28;20202;-57
2021/01/22 12:53:25;;;;;;;7.23;5.30;;;;;;;;;;4998221;28;20182;-59
2021/01/22 12:55:51;;;;;;;7.00;5.30;;;;;;;;;;5012255;28;20177;-57
2021/01/22 12:58:18;;;;;;;5.97;5.20;;;;;;;;;;5011588;28;20228;-56
2021/01/22 13:00:44;;;;;;;9.20;5.07;;;;;;;;;;5029099;28;20186;-58
2021/01/22 13:03:10;;;;;;;5.93;5.00;;;;;;;;;;5029377;28;20185;-57
2021/01/22 13:05:37;;;;;;;6.53;4.90;;;;;;;;;;5029161;28;20190;-58
2021/01/22 13:08:03;;;;;;;5.03;3.80;;;;;;;;;;5011464;28;20660;-57
2021/01/22 13:10:29;;;;;;;5.87;4.97;;;;;;;;;;5029407;28;20279;-57
2021/01/22 13:12:55;;;;;;;7.13;5.40;;;;;;;;;;5029295;28;20166;-58
2021/01/22 13:15:21;;;;;;;6.80;4.93;;;;;;;;;;5029902;28;20278;-57
2021/01/22 13:17:47;;;;;;;6.17;4.33;;;;;;;;;;5029124;28;20173;-57
2021/01/22 13:20:13;;;;;;;5.40;4.40;;;;;;;;;;5025823;28;20496;-57
2021/01/22 13:22:39;;;;;;;6.00;4.50;;;;;;;;;;5024212;28;20243;-57
2021/01/22 13:25:06;;;;;;;9.17;4.27;;;;;;;;;;5024027;28;20205;-58
2021/01/22 13:27:32;;;;;;;4.50;3.87;;;;;;;;;;5022034;28;20189;-58
2021/01/22 13:29:58;;;;;;;4.83;3.30;;;;;;;;;;5014922;28;20632;-57
2021/01/22 13:32:25;;;;;;;5.73;3.80;;;;;;;;;;5008731;28;20177;-56
2021/01/22 13:34:51;;;;;;;4.30;3.90;;;;;;;;;;5013240;28;20174;-57
2021/01/22 13:37:17;;;;;;;3.40;3.10;;;;;;;;;;5004035;28;20280;-57
2021/01/22 13:39:43;;;;;;;5.20;3.63;;;;;;;;;;5025523;28;20530;-60
2021/01/22 13:42:10;;;;;;;6.53;3.97;;;;;;;;;;5023411;28;20193;-58
2021/01/22 13:44:36;;;;;;;4.60;3.63;;;;;;;;;;5023681;28;20269;-56
2021/01/22 13:47:02;;;;;;;4.17;3.23;;;;;;;;;;5025931;28;20183;-58
2021/01/22 13:49:28;;;;;;;3.67;3.20;;;;;;;;;;5024182;28;20213;-57
2021/01/22 13:51:54;;;;;;;4.77;3.03;;;;;;;;;;5029315;28;20240;-57
2021/01/22 13:54:20;;;;;;;5.33;3.43;;;;;;;;;;5028288;28;20178;-59
2021/01/22 13:56:46;;;;;;;4.77;3.00;;;;;;;;;;5007554;28;20178;-57
2021/01/22 13:59:13;;;;;;;5.10;3.53;;;;;;;;;;5026369;28;20648;-57
2021/01/22 14:01:39;;;;;;;5.13;3.23;;;;;;;;;;5024958;28;20605;-57
2021/01/22 14:04:05;;;;;;;6.70;3.33;;;;;;;;;;5024898;28;20264;-57
2021/01/22 14:06:31;;;;;;;3.90;2.63;;;;;;;;;;5009679;28;20182;-57
2021/01/22 14:08:57;;;;;;;3.87;3.27;;;;;;;;;;5024080;28;20212;-58
2021/01/22 14:11:23;;;;;;;4.37;3.10;;;;;;;;;;5026652;28;20221;-57
2021/01/22 14:13:49;;;;;;;4.63;3.00;;;;;;;;;;5004764;28;20526;-57
2021/01/22 14:16:16;;;;;;;4.80;2.90;;;;;;;;;;5025213;28;20683;-57
2021/01/22 14:18:42;;;;;;;4.00;2.80;;;;;;;;;;5008692;28;20786;-59
2021/01/22 14:21:08;;;;;;;7.10;3.50;;;;;;;;;;5031780;28;20185;-57
2021/01/22 14:23:34;;;;;;;3.17;2.70;;;;;;;;;;5028523;28;20177;-57
2021/01/22 14:26:00;;;;;;;5.10;3.10;;;;;;;;;;5029649;28;20188;-57
2021/01/22 14:28:26;;;;;;;4.97;2.87;;;;;;;;;;4998547;28;20178;-56
2021/01/22 14:30:52;;;;;;;5.87;3.20;;;;;;;;;;5023315;28;21053;-56
2021/01/22 14:33:18;;;;;;;3.83;2.23;;;;;;;;;;5011090;28;20178;-57
2021/01/22 14:35:44;;;;;;;4.23;3.07;;;;;;;;;;5028871;28;20178;-58
2021/01/22 14:38:10;;;;;;;5.80;2.63;;;;;;;;;;5032698;28;20178;-58
2021/01/22 14:40:36;;;;;;;3.73;2.80;;;;;;;;;;5014105;28;20653;-57
2021/01/22 14:43:02;;;;;;;4.80;2.77;;;;;;;;;;5010681;28;20186;-59